x

South Bermuda - 300 Nm Sse Of Bermuda (41049) Wave Buoy

11:50am - Mon 28th Jul 2014 All times are UTC.

  • Sig Wave height 3.0ft
  • Swell Direction
  • Peak Period 8s
  • Average Period 6s
  • Wind
    9mph, 11mph gusts
  • Sea Temp 83°f
  • Air Temp 82°f
  • Sea Pressure 1021.7mb

More Historic Weather Station data

Upgrade to MSW Pro to gain access to the past 30 days of data for over 8000 Wavebouys and Weather Stations around the globe.

Join Pro

Comparision Forecast

View Surf forecast
   
Mon 07/28 11:50am 3ft 8s 6s 9 11 mph 1021.7mb 83f 82f
10:50am 3ft 8s 6s 9 11 mph 1021.4mb 83f 81f
9:50am 3ft 8s 6s 11 13 mph 1020.9mb 83f 81f
8:50am 3ft 8s 6s 11 13 mph 1020.5mb 83f 81f
7:50am 3.5ft 7s 6s 9 11 mph 1020.5mb 83f 81f
6:50am 3.5ft 8s 6s 7 9 mph 1020.8mb 83f 81f
5:50am 3ft 8s 6s 7 11 mph 1021mb 83f 81f
4:50am 3.5ft 8s 6s 9 11 mph 1021.5mb 83f 81f
3:50am 3.5ft 8s 6s 7 9 mph 1022mb 83f 81f
1:50am 3.5ft 8s 6s 4 7 mph 1022.7mb 84f 81f
12:50am 3.5ft 8s 6s 4 7 mph 1022.5mb 84f 81f
Sun 07/27 11:50pm 3.5ft 8s 6s 4 7 mph 1022.1mb 84f 82f
10:50pm 3.5ft 8s 6s 4 7 mph 1021.7mb 84f 82f
9:50pm 3.5ft 8s 6s 2 4 mph 1021.1mb 84f 82f
8:50pm 3ft 8s 6s 4 7 mph 1020.8mb 84f 82f
7:50pm 3.5ft 8s 6s 4 7 mph 1021mb 84f 82f
6:50pm 3.5ft 8s 6s 4 7 mph 1021.4mb 84f 82f
5:50pm 3.5ft 8s 6s 7 9 mph 1021.8mb 84f 81f
4:50pm 3.5ft 7s 6s 7 9 mph 1022.1mb 84f 82f
3:50pm 3.5ft 7s 6s 7 9 mph 1022.1mb 84f 81f
2:50pm 3.5ft 7s 6s 7 9 mph 1022.4mb 83f 81f
1:50pm 3.5ft 8s 6s 7 9 mph 1022.1mb 83f 82f
12:50pm 3.5ft 8s 6s 9 11 mph 1021.6mb 83f 82f
11:50am 3.5ft 7s 6s 9 11 mph 1021.3mb 83f 82f
10:50am 3.5ft 8s 6s 9 11 mph 1021.1mb 83f 82f
9:50am 3.5ft 8s 6s 9 11 mph 1020.8mb 83f 81f
8:50am 3.5ft 8s 6s 7 9 mph 1020.5mb 83f 80f
7:50am 3.5ft 8s 6s 7 9 mph 1020.3mb 83f 80f
6:50am 3.5ft 8s 6s 7 9 mph 1020.9mb 83f 80f
5:50am 3.5ft 7s 6s 11 13 mph 1021.4mb 83f 80f
4:50am 4ft 8s 6s 4 7 mph 1021.9mb 83f 80f
3:50am 3.5ft 8s 6s 7
mph
1022.1mb 83f 81f
2:50am 3.5ft 8s 6s 2 4 mph 1021.9mb 83f 81f
1:50am 3.5ft 8s 6s 7 9 mph 1022mb 83f 81f
12:50am 3.5ft 8s 6s 7 9 mph 1021.6mb 83f 81f
Sat 07/26 11:50pm 3.5ft 8s 6s 9 11 mph 1021.4mb 83f 82f
10:50pm 3.5ft 11s 6s 7 9 mph 1021.2mb 84f 82f
9:50pm 3.5ft 8s 6s 9 11 mph 1021.1mb 84f 83f
8:50pm 3.5ft 11s 6s 9 11 mph 1020.8mb 84f 83f
7:50pm 4ft 9s 6s 7 9 mph 1020.8mb 84f 82f
6:50pm 3.5ft 8s 6s 7 9 mph 1021.4mb 84f 83f
5:50pm 3.5ft 8s 6s 7 9 mph 1021.7mb 84f 82f
4:50pm 3.5ft 8s 6s 11 18 mph 1022.5mb 84f 79f
3:50pm 3.5ft 8s 6s 4 7 mph 1022.7mb 84f 82f
2:50pm 3.5ft 9s 6s 7
mph
1022.5mb 84f 82f
1:50pm 3.5ft 8s 6s 4
mph
1022.2mb 83f 82f
12:50pm 3.5ft 8s 6s 9
mph
1022.1mb 83f 82f
11:50am 3.5ft 8s 6s 7 11 mph 1022mb 83f 82f
10:50am 3.5ft 8s 6s 9 11 mph 1021.8mb 83f 82f
9:50am 3.5ft 9s 6s 11 13 mph 1021.3mb 83f 81f
8:50am 4ft 8s 6s 9 11 mph 1021.1mb 83f 81f
7:50am 3.5ft 9s 6s 11 13 mph 1020.8mb 83f 81f
6:50am 4ft 9s 6s 11 13 mph 1021.2mb 83f 81f
5:50am 3.5ft 8s 6s 9 13 mph 1021.7mb 83f 81f
4:50am 4ft 8s 6s 7 9 mph 1022.4mb 83f 82f
3:50am 3.5ft 9s 6s 7 9 mph 1022.8mb 83f 82f
2:50am 3.5ft 8s 6s 7 9 mph 1023.1mb 83f 82f
1:50am 4ft 10s 6s 4 7 mph 1023mb 83f 82f
12:50am 3.5ft 9s 6s 4
mph
1023mb 83f 82f
Fri 07/25 11:50pm 3.5ft 10s 6s 4 7 mph 1022.3mb 83f 82f
10:50pm 3.5ft 8s 6s 4 7 mph 1022.1mb 83f 82f
9:50pm 3.5ft 8s 6s 7 9 mph 1021.8mb 83f 82f
8:50pm 3.5ft 10s 6s 9 11 mph 1021.5mb 83f 82f
7:50pm 3.5ft 8s 6s 7 9 mph 1022.1mb 83f 82f
6:50pm 3.5ft 8s 6s 7 9 mph 1022.5mb 83f 82f
5:50pm 3.5ft 8s 6s 11 13 mph 1023.2mb 83f 82f
4:50pm 3.5ft 8s 6s 11
mph
1023.6mb 83f 82f
3:50pm 3.5ft 7s 5s 7 11 mph 1024.1mb 83f 82f
2:50pm 3.5ft 8s 5s 9 13 mph 1024mb 83f 82f
1:50pm 3.5ft 8s 5s 9 11 mph 1023.9mb 83f 82f
12:50pm 3.5ft 8s 5s 11 13 mph 1023.5mb 83f 82f
11:50am 3.5ft 8s 5s 11 16 mph 1023.3mb 83f 82f
10:50am 3.5ft 7s 5s 13 16 mph 1022.8mb 83f 82f
9:50am 3.5ft 8s 5s 13 16 mph 1022.4mb 83f 81f
8:50am 3.5ft 7s 5s 11 16 mph 1021.9mb 83f 81f
7:50am 3.5ft 7s 5s 11 13 mph 1021.7mb 83f 81f
6:50am 3ft 8s 5s 11 16 mph 1022mb 83f 81f
5:50am 3ft 7s 5s 11 16 mph 1022.3mb 83f 81f
4:50am 3ft 8s 5s 11 13 mph 1022.6mb 83f 82f
3:50am 3ft 7s 5s 11 13 mph 1023.2mb 83f 82f
1:50am 3ft 7s 5s 9 11 mph 1023.4mb 83f 82f
12:50am 3ft 8s 5s 9
mph
1023.2mb 83f 82f
Thu 07/24 11:50pm 3ft 8s 5s 9 11 mph 1022.6mb 83f 82f
10:50pm 3.5ft 6s 5s 9 11 mph 1022.3mb 83f 82f
9:50pm 3ft 8s 5s 9 11 mph 1021.9mb 84f 83f
8:50pm 3ft 7s 5s 9 11 mph 1021.7mb 84f 82f
7:50pm 3ft 8s 5s 11 13 mph 1021.5mb 84f 82f
6:50pm 3ft 7s 5s 11 13 mph 1021.7mb 84f 82f
5:50pm 2.5ft 7s 5s 13 16 mph 1021.9mb 84f 82f
4:50pm 2.5ft 7s 5s 11 13 mph 1022.3mb 84f 82f
3:50pm 2.5ft 7s 5s 11 13 mph 1022.7mb 83f 82f
2:50pm 2.5ft 7s 5s 11 16 mph 1022.8mb 83f 82f
1:50pm 2.5ft 7s 5s 11 13 mph 1022.7mb 83f 82f